createdAt,value
2018-01-06T00:00:16.603Z,0.00
2018-01-06T00:01:16.592Z,0.00
2018-01-06T00:02:16.585Z,0.00
2018-01-06T00:03:16.602Z,0.00
2018-01-06T00:04:16.552Z,0.00
2018-01-06T00:05:16.544Z,0.00
2018-01-06T00:06:16.531Z,0.00
2018-01-06T00:07:16.519Z,0.00
2018-01-06T00:08:16.504Z,0.00
2018-01-06T00:09:16.490Z,0.00
2018-01-06T00:10:16.480Z,0.00
2018-01-06T00:11:16.462Z,0.00
2018-01-06T00:12:16.442Z,0.00
2018-01-06T00:13:16.439Z,0.00
2018-01-06T00:14:16.441Z,0.00
2018-01-06T00:15:16.413Z,0.00
2018-01-06T00:16:16.393Z,0.00
2018-01-06T00:17:16.384Z,0.00
2018-01-06T00:18:16.369Z,0.00
2018-01-06T00:19:16.355Z,0.00
2018-01-06T00:20:16.344Z,0.00
2018-01-06T00:21:16.326Z,0.00
2018-01-06T00:22:16.314Z,0.00
2018-01-06T00:23:16.303Z,0.00
2018-01-06T00:24:16.288Z,0.00
2018-01-06T00:25:16.276Z,0.00
2018-01-06T00:26:16.266Z,0.00
2018-01-06T00:27:16.248Z,0.00
2018-01-06T00:28:16.237Z,0.00
2018-01-06T00:29:16.223Z,0.00
2018-01-06T00:30:16.215Z,0.00
2018-01-06T00:31:16.198Z,0.00
2018-01-06T00:32:16.186Z,0.00
2018-01-06T00:33:16.174Z,0.00
2018-01-06T00:34:16.156Z,0.00
2018-01-06T00:35:16.143Z,0.00
2018-01-06T00:36:16.131Z,0.00
2018-01-06T00:37:16.117Z,0.00
2018-01-06T00:38:16.113Z,0.00
2018-01-06T00:39:16.151Z,0.00
2018-01-06T00:40:16.080Z,0.00
2018-01-06T00:41:16.067Z,0.00
2018-01-06T00:42:16.055Z,0.00
2018-01-06T00:43:16.043Z,0.00
2018-01-06T00:44:16.057Z,0.00
2018-01-06T00:45:16.012Z,0.00
2018-01-06T00:46:15.999Z,0.00
2018-01-06T00:47:15.988Z,0.00
2018-01-06T00:48:15.974Z,0.00
2018-01-06T00:49:15.963Z,0.00
2018-01-06T00:50:15.948Z,0.00
2018-01-06T00:51:15.939Z,0.00
2018-01-06T00:52:15.926Z,0.00
2018-01-06T00:53:15.911Z,0.00
2018-01-06T00:54:15.898Z,0.00
2018-01-06T00:55:15.880Z,0.00
2018-01-06T00:56:15.873Z,0.00
2018-01-06T00:57:15.857Z,0.00
2018-01-06T00:58:15.849Z,0.00
2018-01-06T00:59:15.831Z,0.00
2018-01-06T01:00:15.822Z,0.00
2018-01-06T01:01:15.865Z,0.00
2018-01-06T01:02:15.799Z,0.00
2018-01-06T01:03:15.782Z,0.00
2018-01-06T01:04:15.775Z,0.00
2018-01-06T01:05:15.752Z,0.00
2018-01-06T01:06:15.747Z,0.00
2018-01-06T01:07:15.726Z,0.00
2018-01-06T01:08:15.718Z,0.00
2018-01-06T01:09:15.704Z,0.00
2018-01-06T01:10:15.691Z,0.00
2018-01-06T01:11:15.680Z,0.00
2018-01-06T01:12:15.664Z,0.00
2018-01-06T01:13:15.650Z,0.00
2018-01-06T01:14:15.638Z,0.00
2018-01-06T01:15:15.620Z,0.00
2018-01-06T01:16:15.611Z,0.00
2018-01-06T01:17:15.596Z,0.00
2018-01-06T01:18:15.582Z,0.00
2018-01-06T01:19:15.574Z,0.00
2018-01-06T01:20:15.555Z,0.00
2018-01-06T01:21:15.546Z,0.00
2018-01-06T01:22:15.531Z,0.00
2018-01-06T01:23:15.518Z,0.00
2018-01-06T01:24:15.504Z,0.00
2018-01-06T01:25:15.491Z,0.00
2018-01-06T01:26:15.483Z,0.00
2018-01-06T01:27:15.461Z,0.00
2018-01-06T01:28:15.477Z,0.00
2018-01-06T01:29:15.478Z,0.00
2018-01-06T01:30:15.436Z,0.00
2018-01-06T01:31:15.416Z,0.00
2018-01-06T01:32:15.404Z,0.00
2018-01-06T01:33:15.389Z,0.00
2018-01-06T01:34:15.379Z,0.00
2018-01-06T01:35:15.359Z,0.00
2018-01-06T01:36:15.350Z,0.00
2018-01-06T01:37:15.336Z,0.00
2018-01-06T01:38:15.326Z,0.00
2018-01-06T01:39:15.311Z,0.00
2018-01-06T01:40:15.295Z,0.00
2018-01-06T01:41:15.280Z,0.00
2018-01-06T01:42:15.270Z,0.00
2018-01-06T01:43:15.256Z,0.00
2018-01-06T01:44:15.248Z,0.00
2018-01-06T01:45:15.233Z,0.00
2018-01-06T01:46:15.219Z,0.00
2018-01-06T01:47:15.209Z,0.00
2018-01-06T01:48:15.195Z,0.00
2018-01-06T01:49:15.180Z,0.00
2018-01-06T01:50:15.168Z,0.00
2018-01-06T01:51:15.148Z,0.00
2018-01-06T01:52:15.140Z,0.00
2018-01-06T01:53:15.131Z,0.00
2018-01-06T01:54:15.116Z,0.00
2018-01-06T01:55:15.102Z,0.00
2018-01-06T01:56:15.088Z,0.00
2018-01-06T01:57:15.074Z,0.00
2018-01-06T01:58:15.062Z,0.00
2018-01-06T01:59:15.055Z,0.00
2018-01-06T02:00:15.041Z,0.00
2018-01-06T02:01:15.025Z,0.00
2018-01-06T02:02:15.015Z,0.00
2018-01-06T02:03:14.995Z,0.00
2018-01-06T02:04:14.982Z,0.00
2018-01-06T02:05:14.970Z,0.00
2018-01-06T02:06:14.957Z,0.00
2018-01-06T02:07:14.947Z,0.00
2018-01-06T02:08:14.928Z,0.00
2018-01-06T02:09:14.918Z,0.00
2018-01-06T02:10:14.907Z,0.00
2018-01-06T02:11:14.890Z,0.00
2018-01-06T02:12:14.881Z,0.00
2018-01-06T02:13:14.867Z,0.00
2018-01-06T02:14:14.858Z,0.00
2018-01-06T02:15:14.844Z,0.00
2018-01-06T02:16:14.824Z,0.00
2018-01-06T02:17:14.813Z,0.00
2018-01-06T02:18:14.809Z,0.00
2018-01-06T02:19:14.784Z,0.00
2018-01-06T02:20:14.775Z,0.00
2018-01-06T02:21:14.760Z,0.00
2018-01-06T02:22:14.746Z,0.00
2018-01-06T02:23:14.736Z,0.00
2018-01-06T02:24:14.723Z,0.00
2018-01-06T02:25:14.709Z,0.00
2018-01-06T02:26:14.694Z,0.00
2018-01-06T02:27:14.685Z,0.00
2018-01-06T02:28:14.673Z,0.00
2018-01-06T02:29:14.660Z,0.00
2018-01-06T02:30:14.642Z,0.00
2018-01-06T02:31:14.636Z,0.00
2018-01-06T02:32:14.621Z,0.00
2018-01-06T02:33:14.604Z,0.00
2018-01-06T02:34:14.595Z,0.00
2018-01-06T02:35:14.582Z,0.00
2018-01-06T02:36:14.571Z,0.00
2018-01-06T02:37:14.556Z,0.00
2018-01-06T02:38:14.550Z,0.00
2018-01-06T02:39:14.532Z,0.00
2018-01-06T02:40:14.522Z,0.00
2018-01-06T02:41:14.509Z,0.00
2018-01-06T02:42:14.490Z,0.00
2018-01-06T02:43:14.477Z,0.00
2018-01-06T02:44:14.464Z,0.00
2018-01-06T02:45:14.456Z,0.00
2018-01-06T02:46:14.441Z,0.00
2018-01-06T02:47:14.423Z,0.00
2018-01-06T02:48:14.413Z,0.00
2018-01-06T02:49:14.406Z,0.00
2018-01-06T02:50:14.389Z,0.00
2018-01-06T02:51:14.378Z,0.00
2018-01-06T02:52:14.376Z,0.00
2018-01-06T02:53:14.350Z,0.00
2018-01-06T02:54:14.335Z,0.00
2018-01-06T02:55:14.319Z,0.00
2018-01-06T02:56:14.312Z,0.00
2018-01-06T02:57:14.294Z,0.00
2018-01-06T02:58:14.282Z,0.00
2018-01-06T02:59:14.272Z,0.00
2018-01-06T03:00:14.256Z,0.00
2018-01-06T03:01:14.243Z,0.00
2018-01-06T03:02:14.230Z,0.00
2018-01-06T03:03:14.220Z,0.00
2018-01-06T03:04:14.206Z,0.00
2018-01-06T03:05:14.192Z,0.00
2018-01-06T03:06:14.180Z,0.00
2018-01-06T03:07:14.168Z,0.00
2018-01-06T03:08:14.157Z,0.00
2018-01-06T03:09:14.143Z,0.00
2018-01-06T03:10:14.128Z,0.00
2018-01-06T03:11:14.114Z,0.00
2018-01-06T03:12:14.103Z,0.00
2018-01-06T03:13:14.089Z,0.00
2018-01-06T03:14:14.076Z,0.00
2018-01-06T03:15:14.063Z,0.00
2018-01-06T03:16:14.047Z,0.00
2018-01-06T03:17:14.036Z,0.00
2018-01-06T03:18:14.025Z,0.00
2018-01-06T03:19:14.019Z,0.00
2018-01-06T03:20:13.995Z,0.00
2018-01-06T03:21:13.988Z,0.00
2018-01-06T03:22:13.977Z,0.00
2018-01-06T03:23:13.960Z,0.00
2018-01-06T03:24:13.946Z,0.00
2018-01-06T03:25:13.932Z,0.00
2018-01-06T03:26:13.925Z,0.00
2018-01-06T03:27:13.912Z,0.00
2018-01-06T03:28:13.896Z,0.00
2018-01-06T03:29:13.884Z,0.00
2018-01-06T03:30:13.868Z,0.00
2018-01-06T03:31:13.855Z,0.00
2018-01-06T03:32:13.843Z,0.00
2018-01-06T03:33:13.827Z,0.00
2018-01-06T03:34:13.818Z,0.00
2018-01-06T03:35:13.800Z,0.00
2018-01-06T03:36:13.790Z,0.00
2018-01-06T03:37:13.777Z,0.00
2018-01-06T03:38:13.767Z,0.00
2018-01-06T03:39:13.750Z,0.00
2018-01-06T03:40:13.739Z,0.00
2018-01-06T03:41:13.726Z,0.00
2018-01-06T03:42:13.716Z,0.00
2018-01-06T03:43:13.698Z,0.00
2018-01-06T03:44:13.685Z,0.00
2018-01-06T03:45:13.673Z,0.00
2018-01-06T03:46:13.656Z,0.00
2018-01-06T03:47:13.645Z,0.00
2018-01-06T03:48:13.636Z,0.00
2018-01-06T03:49:13.624Z,0.00
2018-01-06T03:50:13.607Z,0.00
2018-01-06T03:51:13.593Z,0.00
2018-01-06T03:52:13.577Z,0.00
2018-01-06T03:53:13.567Z,0.00
2018-01-06T03:54:13.557Z,0.00
2018-01-06T03:55:13.543Z,0.00
2018-01-06T03:56:13.533Z,0.00
2018-01-06T03:57:13.515Z,0.00
2018-01-06T03:58:13.503Z,0.00
2018-01-06T03:59:13.491Z,0.00
2018-01-06T04:00:13.476Z,0.00
2018-01-06T04:01:13.474Z,0.00
2018-01-06T04:02:13.450Z,0.00
2018-01-06T04:03:13.440Z,0.00
2018-01-06T04:04:13.418Z,0.00
2018-01-06T04:05:13.407Z,0.00
2018-01-06T04:06:13.398Z,0.00
2018-01-06T04:07:13.384Z,0.00
2018-01-06T04:08:13.368Z,0.00
2018-01-06T04:09:13.357Z,0.00
2018-01-06T04:10:13.346Z,0.00
2018-01-06T04:11:13.331Z,0.00
2018-01-06T04:12:13.319Z,0.00
2018-01-06T04:13:13.304Z,0.00
2018-01-06T04:14:13.291Z,0.00
2018-01-06T04:15:13.278Z,0.00
2018-01-06T04:16:13.269Z,0.00
2018-01-06T04:17:13.254Z,0.00
2018-01-06T04:18:13.236Z,0.00
2018-01-06T04:19:13.225Z,0.00
2018-01-06T04:20:13.210Z,0.00
2018-01-06T04:21:13.200Z,0.00
2018-01-06T04:22:13.192Z,0.00
2018-01-06T04:23:13.172Z,0.00
2018-01-06T04:24:13.160Z,0.00
2018-01-06T04:25:13.159Z,0.00
2018-01-06T04:26:13.130Z,0.00
2018-01-06T04:27:13.120Z,0.00
2018-01-06T04:28:13.109Z,0.00
2018-01-06T04:29:13.091Z,0.00
2018-01-06T04:30:13.084Z,0.00
2018-01-06T04:31:13.068Z,0.00
2018-01-06T04:32:13.055Z,0.00
2018-01-06T04:33:13.045Z,0.00
2018-01-06T04:34:13.027Z,0.00
2018-01-06T04:35:13.011Z,0.00
2018-01-06T04:36:12.998Z,0.00
2018-01-06T04:37:12.990Z,0.00
2018-01-06T04:38:12.976Z,0.00
2018-01-06T04:39:12.959Z,0.00
2018-01-06T04:40:12.952Z,0.00
2018-01-06T04:41:12.934Z,0.00
2018-01-06T04:42:12.919Z,0.00
2018-01-06T04:43:12.909Z,0.00
2018-01-06T04:44:12.890Z,0.00
2018-01-06T04:45:12.882Z,0.00
2018-01-06T04:46:12.865Z,0.00
2018-01-06T04:47:12.853Z,0.00
2018-01-06T04:48:12.844Z,0.00
2018-01-06T04:49:12.824Z,0.00
2018-01-06T04:50:12.820Z,0.00
2018-01-06T04:51:12.800Z,0.00
2018-01-06T04:52:12.785Z,0.00
2018-01-06T04:53:12.777Z,0.00
2018-01-06T04:54:12.757Z,0.00
2018-01-06T04:55:12.744Z,0.00
2018-01-06T04:56:12.732Z,0.00
2018-01-06T04:57:12.721Z,0.00
2018-01-06T04:58:12.704Z,0.00
2018-01-06T04:59:12.688Z,0.00
2018-01-06T05:00:12.675Z,0.00
2018-01-06T05:01:12.663Z,0.00
2018-01-06T05:02:12.651Z,0.00
2018-01-06T05:03:12.639Z,0.00
2018-01-06T05:04:12.624Z,0.00
2018-01-06T05:05:12.614Z,0.00
2018-01-06T05:06:12.594Z,0.00
2018-01-06T05:07:12.581Z,0.00
2018-01-06T05:08:12.571Z,0.00
2018-01-06T05:09:12.555Z,0.00
2018-01-06T05:10:12.548Z,0.00
2018-01-06T05:11:12.526Z,0.00
2018-01-06T05:12:12.512Z,0.00
2018-01-06T05:13:12.506Z,0.00
2018-01-06T05:14:12.490Z,0.00
2018-01-06T05:15:12.483Z,0.00
2018-01-06T05:16:12.463Z,0.00
2018-01-06T05:17:12.452Z,0.00
2018-01-06T05:18:12.436Z,0.00
2018-01-06T05:19:12.422Z,0.00
2018-01-06T05:20:12.411Z,0.00
2018-01-06T05:21:12.396Z,0.00
2018-01-06T05:22:12.381Z,0.00
2018-01-06T05:23:12.373Z,0.00
2018-01-06T05:24:12.357Z,0.00
2018-01-06T05:25:12.343Z,0.00
2018-01-06T05:26:12.323Z,0.00
2018-01-06T05:27:12.317Z,0.00
2018-01-06T05:28:12.309Z,0.00
2018-01-06T05:29:12.285Z,0.00
2018-01-06T05:30:12.277Z,0.00
2018-01-06T05:31:12.255Z,0.00
2018-01-06T05:32:12.247Z,0.00
2018-01-06T05:33:12.234Z,0.00
2018-01-06T05:34:12.220Z,0.00
2018-01-06T05:35:12.204Z,0.00
2018-01-06T05:36:12.190Z,0.00
2018-01-06T05:37:12.180Z,0.00
2018-01-06T05:38:12.173Z,0.00
2018-01-06T05:39:12.152Z,0.00
2018-01-06T05:40:12.137Z,0.00
2018-01-06T05:41:12.128Z,0.00
2018-01-06T05:42:12.116Z,0.00
2018-01-06T05:43:12.103Z,0.00
2018-01-06T05:44:12.085Z,0.00
2018-01-06T05:45:12.076Z,0.00
2018-01-06T05:46:12.055Z,0.00
2018-01-06T05:47:12.042Z,0.00
2018-01-06T05:48:12.031Z,0.00
2018-01-06T05:49:12.015Z,0.00
2018-01-06T05:50:12.011Z,0.00
2018-01-06T05:51:11.990Z,0.00
2018-01-06T05:52:11.978Z,0.00
2018-01-06T05:53:11.964Z,0.00
2018-01-06T05:54:11.950Z,0.00
2018-01-06T05:55:11.936Z,0.00
2018-01-06T05:56:11.922Z,0.00
2018-01-06T05:57:11.911Z,0.00
2018-01-06T05:58:11.904Z,0.00
2018-01-06T05:59:11.884Z,0.00
2018-01-06T06:00:11.878Z,0.00
2018-01-06T06:01:11.859Z,0.00
2018-01-06T06:02:11.844Z,0.00
2018-01-06T06:03:11.835Z,0.00
2018-01-06T06:04:11.817Z,0.00
2018-01-06T06:05:11.808Z,0.00
2018-01-06T06:06:11.798Z,0.00
2018-01-06T06:07:11.780Z,0.00
2018-01-06T06:08:11.766Z,0.00
2018-01-06T06:09:11.753Z,0.00
2018-01-06T06:10:11.740Z,0.00
2018-01-06T06:11:11.722Z,0.00
2018-01-06T06:12:11.711Z,0.00
2018-01-06T06:13:11.699Z,0.00
2018-01-06T06:14:11.681Z,0.00
2018-01-06T06:15:11.673Z,0.00
2018-01-06T06:16:11.653Z,0.00
2018-01-06T06:17:11.643Z,0.00
2018-01-06T06:18:11.630Z,0.00
2018-01-06T06:19:11.615Z,0.00
2018-01-06T06:20:11.607Z,0.00
2018-01-06T06:21:11.591Z,0.00
2018-01-06T06:22:11.578Z,0.00
2018-01-06T06:23:11.564Z,0.00
2018-01-06T06:24:11.545Z,0.00
2018-01-06T06:25:11.541Z,0.00
2018-01-06T06:26:11.516Z,0.00
2018-01-06T06:27:11.506Z,0.00
2018-01-06T06:28:11.498Z,0.00
2018-01-06T06:29:11.482Z,0.00
2018-01-06T06:30:11.471Z,0.00
2018-01-06T06:31:11.447Z,0.00
2018-01-06T06:32:11.452Z,0.00
2018-01-06T06:33:11.430Z,0.00
2018-01-06T06:34:11.413Z,0.00
2018-01-06T06:35:11.411Z,0.00
2018-01-06T06:36:11.388Z,0.00
2018-01-06T06:37:11.373Z,0.00
2018-01-06T06:38:11.364Z,0.00
2018-01-06T06:39:11.347Z,0.00
2018-01-06T06:40:11.339Z,0.00
2018-01-06T06:41:11.324Z,0.00
2018-01-06T06:42:11.313Z,0.00
2018-01-06T06:43:11.295Z,0.00
2018-01-06T06:44:11.280Z,0.00
2018-01-06T06:45:11.269Z,0.00
2018-01-06T06:46:11.255Z,0.00
2018-01-06T06:47:11.239Z,0.00
2018-01-06T06:48:11.228Z,0.00
2018-01-06T06:49:11.214Z,0.00
2018-01-06T06:50:11.204Z,0.00
2018-01-06T06:51:11.180Z,0.00
2018-01-06T06:52:11.170Z,0.00
2018-01-06T06:53:11.166Z,0.00
2018-01-06T06:54:11.139Z,0.00
2018-01-06T06:55:11.132Z,0.00
2018-01-06T06:56:11.116Z,0.00
2018-01-06T06:57:11.104Z,0.00
2018-01-06T06:58:11.093Z,0.00
2018-01-06T06:59:11.078Z,0.00
2018-01-06T07:00:11.063Z,0.00
2018-01-06T07:01:11.048Z,0.00
2018-01-06T07:02:11.042Z,0.00
2018-01-06T07:03:11.028Z,0.00
2018-01-06T07:04:11.013Z,0.00
2018-01-06T07:05:11.005Z,0.00
2018-01-06T07:06:10.982Z,0.00
2018-01-06T07:07:10.973Z,0.00
2018-01-06T07:08:10.959Z,0.00
2018-01-06T07:09:10.947Z,0.00
2018-01-06T07:10:10.934Z,0.00
2018-01-06T07:11:10.918Z,0.00
2018-01-06T07:12:10.909Z,0.00
2018-01-06T07:13:10.896Z,0.00
2018-01-06T07:14:10.876Z,0.00
2018-01-06T07:15:10.861Z,0.00
2018-01-06T07:16:10.847Z,5.63
2018-01-06T07:17:10.839Z,5.63
2018-01-06T07:18:10.852Z,5.63
2018-01-06T07:19:10.806Z,5.63
2018-01-06T07:20:10.794Z,5.63
2018-01-06T07:21:10.781Z,5.63
2018-01-06T07:22:10.774Z,5.63
2018-01-06T07:23:10.755Z,5.63
2018-01-06T07:24:10.744Z,5.63
2018-01-06T07:25:10.734Z,5.63
2018-01-06T07:26:10.721Z,5.63
2018-01-06T07:27:10.727Z,5.63
2018-01-06T07:28:10.691Z,5.63
2018-01-06T07:29:10.683Z,5.63
2018-01-06T07:30:10.659Z,5.63
2018-01-06T07:31:10.648Z,5.63
2018-01-06T07:32:10.636Z,5.63
2018-01-06T07:33:10.618Z,5.63
2018-01-06T07:34:10.605Z,5.63
2018-01-06T07:35:10.590Z,5.63
2018-01-06T07:36:10.576Z,5.63
2018-01-06T07:37:10.570Z,11.25
2018-01-06T07:38:10.557Z,11.25
2018-01-06T07:39:10.537Z,11.25
2018-01-06T07:40:10.570Z,11.25
2018-01-06T07:41:10.513Z,11.25
2018-01-06T07:42:10.505Z,11.25
2018-01-06T07:43:10.491Z,11.25
2018-01-06T07:44:10.471Z,11.25
2018-01-06T07:45:10.462Z,11.25
2018-01-06T07:46:10.447Z,11.25
2018-01-06T07:47:10.433Z,11.25
2018-01-06T07:48:10.422Z,11.25
2018-01-06T07:49:10.414Z,11.25
2018-01-06T07:50:10.401Z,11.25
2018-01-06T07:51:10.380Z,11.25
2018-01-06T07:52:10.372Z,11.25
2018-01-06T07:53:10.357Z,11.25
2018-01-06T07:54:10.338Z,11.25
2018-01-06T07:55:10.320Z,11.25
2018-01-06T07:56:10.311Z,16.88
2018-01-06T07:57:10.303Z,16.88
2018-01-06T07:58:10.294Z,16.88
2018-01-06T07:59:10.267Z,16.88
2018-01-06T08:00:10.264Z,16.88
2018-01-06T08:01:10.245Z,16.88
2018-01-06T08:02:10.243Z,16.88
2018-01-06T08:03:10.223Z,16.88
2018-01-06T08:04:10.207Z,16.88
2018-01-06T08:05:10.195Z,16.88
2018-01-06T08:06:10.180Z,16.88
2018-01-06T08:07:10.168Z,16.88
2018-01-06T08:08:10.149Z,16.88
2018-01-06T08:09:10.138Z,16.88
2018-01-06T08:10:10.123Z,16.88
2018-01-06T08:11:10.107Z,22.50
2018-01-06T08:12:10.102Z,22.50
2018-01-06T08:13:10.086Z,22.50
2018-01-06T08:14:10.074Z,22.50
2018-01-06T08:15:10.058Z,22.50
2018-01-06T08:16:10.047Z,22.50
2018-01-06T08:17:10.033Z,22.50
2018-01-06T08:18:10.018Z,22.50
2018-01-06T08:19:10.001Z,22.50
2018-01-06T08:20:09.995Z,22.50
2018-01-06T08:21:09.977Z,22.50
2018-01-06T08:22:09.966Z,22.50
2018-01-06T08:23:09.951Z,22.50
2018-01-06T08:24:09.938Z,22.50
2018-01-06T08:25:09.929Z,22.50
2018-01-06T08:26:09.912Z,22.50
2018-01-06T08:27:09.899Z,22.50
2018-01-06T08:28:09.885Z,22.50
2018-01-06T08:29:09.867Z,22.50
2018-01-06T08:30:09.860Z,22.50
2018-01-06T08:31:09.842Z,22.50
2018-01-06T08:32:09.835Z,22.50
2018-01-06T08:33:09.857Z,22.50
2018-01-06T08:34:09.811Z,28.13
2018-01-06T08:35:09.794Z,28.13
2018-01-06T08:36:09.775Z,22.50
2018-01-06T08:37:09.770Z,28.13
2018-01-06T08:38:09.768Z,28.13
2018-01-06T08:39:09.739Z,28.13
2018-01-06T08:40:09.727Z,28.13
2018-01-06T08:41:09.722Z,22.50
2018-01-06T08:42:09.701Z,22.50
2018-01-06T08:43:09.685Z,28.13
2018-01-06T08:44:09.680Z,28.13
2018-01-06T08:45:09.660Z,33.75
2018-01-06T08:46:09.651Z,33.75
2018-01-06T08:47:09.638Z,39.38
2018-01-06T08:48:09.623Z,39.38
2018-01-06T08:49:09.615Z,39.38
2018-01-06T08:50:09.595Z,28.13
2018-01-06T08:51:09.585Z,33.75
2018-01-06T08:52:09.570Z,45.00
2018-01-06T08:53:09.556Z,28.13
2018-01-06T08:54:09.542Z,28.13
2018-01-06T08:55:09.527Z,45.00
2018-01-06T08:56:09.522Z,39.38
2018-01-06T08:57:09.506Z,28.13
2018-01-06T08:58:09.491Z,33.75
2018-01-06T08:59:09.481Z,39.38
2018-01-06T09:00:09.469Z,50.63
2018-01-06T09:01:09.456Z,67.50
2018-01-06T09:02:09.439Z,78.75
2018-01-06T09:03:09.427Z,28.13
2018-01-06T09:04:09.414Z,73.13
2018-01-06T09:05:09.404Z,61.88
2018-01-06T09:06:09.400Z,84.38
2018-01-06T09:07:09.377Z,84.38
2018-01-06T09:08:09.364Z,95.63
2018-01-06T09:09:09.351Z,95.63
2018-01-06T09:10:09.338Z,90.00
2018-01-06T09:11:09.332Z,101.25
2018-01-06T09:12:09.319Z,106.88
2018-01-06T09:13:09.300Z,112.50
2018-01-06T09:14:09.288Z,112.50
2018-01-06T09:15:09.274Z,118.13
2018-01-06T09:16:09.265Z,123.75
2018-01-06T09:17:09.253Z,123.75
2018-01-06T09:18:09.239Z,129.38
2018-01-06T09:19:09.227Z,129.38
2018-01-06T09:20:09.216Z,129.38
2018-01-06T09:21:09.196Z,135.00
2018-01-06T09:22:09.228Z,140.63
2018-01-06T09:23:09.176Z,140.63
2018-01-06T09:24:09.166Z,140.63
2018-01-06T09:25:09.153Z,146.25
2018-01-06T09:26:09.141Z,151.88
2018-01-06T09:27:09.131Z,146.25
2018-01-06T09:28:09.118Z,146.25
2018-01-06T09:29:09.109Z,151.88
2018-01-06T09:30:09.098Z,157.50
2018-01-06T09:31:09.079Z,157.50
2018-01-06T09:32:09.069Z,163.13
2018-01-06T09:33:09.057Z,163.13
2018-01-06T09:34:09.046Z,163.13
2018-01-06T09:35:09.037Z,163.13
2018-01-06T09:36:09.019Z,174.38
2018-01-06T09:37:09.018Z,180.00
2018-01-06T09:38:09.005Z,185.63
2018-01-06T09:39:08.991Z,180.00
2018-01-06T09:40:08.980Z,185.63
2018-01-06T09:41:08.970Z,191.25
2018-01-06T09:42:08.956Z,191.25
2018-01-06T09:43:08.944Z,196.88
2018-01-06T09:44:08.935Z,202.50
2018-01-06T09:45:08.929Z,208.13
2018-01-06T09:46:08.916Z,208.13
2018-01-06T09:47:08.901Z,202.50
2018-01-06T09:48:08.891Z,196.88
2018-01-06T09:49:08.888Z,191.25
2018-01-06T09:50:08.870Z,196.88
2018-01-06T09:51:08.859Z,202.50
2018-01-06T09:52:08.849Z,202.50
2018-01-06T09:53:08.840Z,196.88
2018-01-06T09:54:08.831Z,213.75
2018-01-06T09:55:08.821Z,208.13
2018-01-06T09:56:08.808Z,213.75
2018-01-06T09:57:08.800Z,219.38
2018-01-06T09:58:08.791Z,163.13
2018-01-06T09:59:08.776Z,219.38
2018-01-06T10:00:08.795Z,225.00
2018-01-06T10:01:08.763Z,225.00
2018-01-06T10:02:08.749Z,225.00
2018-01-06T10:03:08.738Z,230.63
2018-01-06T10:04:08.730Z,236.25
2018-01-06T10:05:08.720Z,236.25
2018-01-06T10:06:08.712Z,236.25
2018-01-06T10:07:08.703Z,236.25
2018-01-06T10:08:08.689Z,241.88
2018-01-06T10:09:08.681Z,241.88
2018-01-06T10:10:08.674Z,247.50
2018-01-06T10:11:08.658Z,236.25
2018-01-06T10:12:08.655Z,258.75
2018-01-06T10:13:08.643Z,258.75
2018-01-06T10:14:08.638Z,253.13
2018-01-06T10:15:08.630Z,258.75
2018-01-06T10:16:08.618Z,258.75
2018-01-06T10:17:08.616Z,264.38
2018-01-06T10:18:08.596Z,247.50
2018-01-06T10:19:08.597Z,270.00
2018-01-06T10:20:08.592Z,270.00
2018-01-06T10:21:08.573Z,270.00
2018-01-06T10:22:08.567Z,196.88
2018-01-06T10:23:08.558Z,275.63
2018-01-06T10:24:08.556Z,270.00
2018-01-06T10:25:08.542Z,270.00
2018-01-06T10:26:08.530Z,281.25
2018-01-06T10:27:08.525Z,281.25
2018-01-06T10:28:08.513Z,230.63
2018-01-06T10:29:08.509Z,281.25
2018-01-06T10:30:08.502Z,270.00
2018-01-06T10:31:08.494Z,101.25
2018-01-06T10:32:08.485Z,157.50
2018-01-06T10:33:08.478Z,174.38
2018-01-06T10:34:08.473Z,258.75
2018-01-06T10:35:08.463Z,241.88
2018-01-06T10:36:08.455Z,196.88
2018-01-06T10:37:08.441Z,129.38
2018-01-06T10:38:08.428Z,157.50
2018-01-06T10:39:08.425Z,106.88
2018-01-06T10:40:08.422Z,292.50
2018-01-06T10:41:08.411Z,191.25
2018-01-06T10:42:08.402Z,286.88
2018-01-06T10:43:08.395Z,84.38
2018-01-06T10:44:08.388Z,78.75
2018-01-06T10:45:08.380Z,253.13
2018-01-06T10:46:08.392Z,281.25
2018-01-06T10:47:08.370Z,95.63
2018-01-06T10:48:08.356Z,90.00
2018-01-06T10:49:08.360Z,101.25
2018-01-06T10:50:08.344Z,95.63
2018-01-06T10:51:08.334Z,90.00
2018-01-06T10:52:08.320Z,95.63
2018-01-06T10:53:08.314Z,95.63
2018-01-06T10:54:08.302Z,106.88
2018-01-06T10:55:08.297Z,112.50
2018-01-06T10:56:08.287Z,106.88
2018-01-06T10:57:08.281Z,106.88
2018-01-06T10:58:08.269Z,95.63
2018-01-06T10:59:08.260Z,84.38
2018-01-06T11:00:08.252Z,163.13
2018-01-06T11:01:08.247Z,225.00
2018-01-06T11:02:08.239Z,95.63
2018-01-06T11:03:08.235Z,101.25
2018-01-06T11:04:08.226Z,247.50
2018-01-06T11:05:08.211Z,135.00
2018-01-06T11:06:08.204Z,112.50
2018-01-06T11:07:08.198Z,168.75
2018-01-06T11:08:08.186Z,118.13
2018-01-06T11:09:08.175Z,174.38
2018-01-06T11:10:08.169Z,298.13
2018-01-06T11:11:08.164Z,225.00
2018-01-06T11:12:08.148Z,129.38
2018-01-06T11:13:08.146Z,140.63
2018-01-06T11:14:08.133Z,112.50
2018-01-06T11:15:08.126Z,112.50
2018-01-06T11:16:08.118Z,112.50
2018-01-06T11:17:08.109Z,343.13
2018-01-06T11:18:08.095Z,180.00
2018-01-06T11:19:08.086Z,213.75
2018-01-06T11:20:08.085Z,360.00
2018-01-06T11:21:08.074Z,174.38
2018-01-06T11:22:08.070Z,258.75
2018-01-06T11:23:08.058Z,140.63
2018-01-06T11:24:08.051Z,315.00
2018-01-06T11:25:08.040Z,135.00
2018-01-06T11:26:08.039Z,258.75
2018-01-06T11:27:08.020Z,140.63
2018-01-06T11:28:08.013Z,320.63
2018-01-06T11:29:08.010Z,292.50
2018-01-06T11:30:07.998Z,196.88
2018-01-06T11:31:07.989Z,354.38
2018-01-06T11:32:07.979Z,140.63
2018-01-06T11:33:07.970Z,365.63
2018-01-06T11:34:07.964Z,275.63
2018-01-06T11:35:07.954Z,129.38
2018-01-06T11:36:07.949Z,129.38
2018-01-06T11:37:07.938Z,151.88
2018-01-06T11:38:07.932Z,360.00
2018-01-06T11:39:07.920Z,264.38
2018-01-06T11:40:07.912Z,348.75
2018-01-06T11:41:07.910Z,225.00
2018-01-06T11:42:07.901Z,354.38
2018-01-06T11:43:07.891Z,129.38
2018-01-06T11:44:07.884Z,168.75
2018-01-06T11:45:07.882Z,331.88
2018-01-06T11:46:07.867Z,118.13
2018-01-06T11:47:07.855Z,112.50
2018-01-06T11:48:07.855Z,118.13
2018-01-06T11:49:07.852Z,320.63
2018-01-06T11:50:07.837Z,146.25
2018-01-06T11:51:07.828Z,309.38
2018-01-06T11:52:07.822Z,118.13
2018-01-06T11:53:07.811Z,123.75
2018-01-06T11:54:07.809Z,196.88
2018-01-06T11:55:07.798Z,360.00
2018-01-06T11:56:07.793Z,348.75
2018-01-06T11:57:07.783Z,354.38
2018-01-06T11:58:07.776Z,348.75
2018-01-06T11:59:07.765Z,348.75
2018-01-06T12:00:07.762Z,258.75
2018-01-06T12:01:07.751Z,213.75
2018-01-06T12:02:07.746Z,157.50
2018-01-06T12:03:07.736Z,196.88
2018-01-06T12:04:07.731Z,163.13
2018-01-06T12:05:07.726Z,151.88
2018-01-06T12:06:07.716Z,191.25
2018-01-06T12:07:07.706Z,135.00
2018-01-06T12:08:07.695Z,140.63
2018-01-06T12:09:07.694Z,129.38
2018-01-06T12:10:07.685Z,230.63
2018-01-06T12:11:07.681Z,337.50
2018-01-06T12:12:07.670Z,337.50
2018-01-06T12:13:07.664Z,315.00
2018-01-06T12:14:07.659Z,140.63
2018-01-06T12:15:07.647Z,118.13
2018-01-06T12:16:07.642Z,123.75
2018-01-06T12:17:07.639Z,247.50
2018-01-06T12:18:07.630Z,208.13
2018-01-06T12:19:07.623Z,118.13
2018-01-06T12:20:07.612Z,118.13
2018-01-06T12:21:07.604Z,129.38
2018-01-06T12:22:07.599Z,264.38
2018-01-06T12:23:07.589Z,157.50
2018-01-06T12:24:07.614Z,185.63
2018-01-06T12:25:07.585Z,326.25
2018-01-06T12:26:07.572Z,118.13
2018-01-06T12:27:07.563Z,112.50
2018-01-06T12:28:07.557Z,112.50
2018-01-06T12:29:07.554Z,118.13
2018-01-06T12:30:07.542Z,225.00
2018-01-06T12:31:07.534Z,118.13
2018-01-06T12:32:07.529Z,326.25
2018-01-06T12:33:07.523Z,129.38
2018-01-06T12:34:07.514Z,118.13
2018-01-06T12:35:07.505Z,118.13
2018-01-06T12:36:07.504Z,191.25
2018-01-06T12:37:07.493Z,315.00
2018-01-06T12:38:07.485Z,202.50
2018-01-06T12:39:07.479Z,118.13
2018-01-06T12:40:07.474Z,320.63
2018-01-06T12:41:07.467Z,320.63
2018-01-06T12:42:07.455Z,270.00
2018-01-06T12:43:07.448Z,309.38
2018-01-06T12:44:07.443Z,309.38
2018-01-06T12:45:07.438Z,303.75
2018-01-06T12:46:07.459Z,309.38
2018-01-06T12:47:07.422Z,309.38
2018-01-06T12:48:07.416Z,309.38
2018-01-06T12:49:07.410Z,275.63
2018-01-06T12:50:07.401Z,320.63
2018-01-06T12:51:07.399Z,213.75
2018-01-06T12:52:07.387Z,281.25
2018-01-06T12:53:07.383Z,225.00
2018-01-06T12:54:07.371Z,309.38
2018-01-06T12:55:07.372Z,315.00
2018-01-06T12:56:07.363Z,292.50
2018-01-06T12:57:07.358Z,275.63
2018-01-06T12:58:07.349Z,230.63
2018-01-06T12:59:07.341Z,118.13
2018-01-06T13:00:07.342Z,146.25